Time;durP1;ratioP1;P1;durP2;ratioP2;P2;SDS_P1;SDS_P2;PMS_P1;PMS_P2;Temp;Humidity;BMP_temperature;BMP_pressure;BME280_temperature;BME280_humidity;BME280_pressure;Samples;Min_cycle;Max_cycle;Signal;HPM_P1;HPM_P2
2023/08/31 00:00:41;;;;;;;1.27;0.60;;;;;;;24.05;48.59;100357.94;5012802;28;20390;-80
2023/08/31 00:03:11;;;;;;;0.80;0.50;;;;;;;23.95;48.97;100357.91;5012995;28;20390;-81
2023/08/31 00:05:46;;;;;;;1.08;0.57;;;;;;;23.93;49.12;100352.78;5012379;28;20413;-79
2023/08/31 00:08:12;;;;;;;0.90;0.50;;;;;;;23.91;49.23;100359.53;5013976;28;20414;-79
2023/08/31 00:10:38;;;;;;;1.13;0.77;;;;;;;23.87;49.10;100353.84;5030917;28;20414;-80
2023/08/31 00:13:04;;;;;;;0.70;0.45;;;;;;;23.85;49.10;100356.81;5030715;28;20382;-79
2023/08/31 00:15:32;;;;;;;0.75;0.60;;;;;;;23.86;49.13;100365.78;5031040;28;20459;-79
2023/08/31 00:18:00;;;;;;;0.60;0.40;;;;;;;23.82;49.03;100368.19;5030458;28;20489;-79
2023/08/31 00:20:26;;;;;;;0.70;0.40;;;;;;;23.81;48.76;100368.47;5013085;28;20390;-79
2023/08/31 00:22:52;;;;;;;1.33;0.80;;;;;;;23.82;48.63;100365.50;5011938;28;20832;-79
2023/08/31 00:25:18;;;;;;;1.17;0.65;;;;;;;23.88;48.71;100370.88;5028903;28;20921;-78
2023/08/31 00:27:47;;;;;;;1.03;0.50;;;;;;;23.91;48.31;100373.88;5028179;28;20394;-78
2023/08/31 00:30:14;;;;;;;0.95;0.45;;;;;;;23.88;48.17;100369.03;5029455;28;20432;-80
2023/08/31 00:32:42;;;;;;;0.70;0.37;;;;;;;23.86;47.94;100368.47;5030637;28;20402;-79
2023/08/31 00:35:09;;;;;;;0.85;0.40;;;;;;;23.71;48.02;100376.50;5030669;28;20808;-79
2023/08/31 00:37:34;;;;;;;0.90;0.50;;;;;;;23.52;48.05;100366.16;5030987;28;20410;-79
2023/08/31 00:40:00;;;;;;;1.05;0.55;;;;;;;23.53;48.18;100375.09;5029129;28;20458;-79
2023/08/31 00:42:29;;;;;;;1.20;0.80;;;;;;;23.53;47.90;100375.91;5030149;28;20404;-81
2023/08/31 00:44:55;;;;;;;1.63;0.63;;;;;;;23.52;47.77;100371.59;5029316;28;20401;-80
2023/08/31 00:47:26;;;;;;;1.50;0.70;;;;;;;23.57;47.47;100379.72;5030478;28;20836;-80
2023/08/31 00:49:53;;;;;;;0.68;0.40;;;;;;;23.58;47.50;100377.81;5012479;28;20386;-80
2023/08/31 00:52:20;;;;;;;0.83;0.50;;;;;;;23.63;47.62;100373.25;5029976;28;20387;-81
2023/08/31 00:54:47;;;;;;;0.90;0.50;;;;;;;23.59;47.33;100382.16;5013150;28;20393;-80
2023/08/31 00:57:15;;;;;;;0.85;0.45;;;;;;;23.45;47.50;100382.63;5013082;28;20504;-80
2023/08/31 00:59:40;;;;;;;0.88;0.52;;;;;;;23.41;47.53;100392.38;4996509;28;20397;-80
2023/08/31 01:02:20;;;;;;;0.67;0.40;;;;;;;23.39;47.50;100382.88;5029322;28;20386;-81
2023/08/31 01:05:11;;;;;;;1.13;0.60;;;;;;;23.33;47.66;100390.16;5012625;28;20405;-80
2023/08/31 01:07:40;;;;;;;0.93;0.60;;;;;;;23.21;47.64;100397.66;5030018;28;20426;-79
2023/08/31 01:10:36;;;;;;;0.88;0.55;;;;;;;23.08;47.98;100402.47;5012246;28;20386;-79
2023/08/31 01:13:13;;;;;;;0.73;0.45;;;;;;;23.20;47.85;100396.84;5000031;28;20395;-81
2023/08/31 01:15:46;;;;;;;0.75;0.40;;;;;;;23.17;47.61;100407.38;5028778;28;20426;-81
2023/08/31 01:18:17;;;;;;;1.13;0.50;;;;;;;22.96;48.10;100414.50;5012458;28;20948;-80
2023/08/31 01:21:08;;;;;;;1.65;1.05;;;;;;;22.92;48.24;100416.91;5012476;28;20433;-78
2023/08/31 01:24:01;;;;;;;1.20;0.60;;;;;;;23.00;47.85;100411.03;5030332;28;20418;-79
2023/08/31 01:26:27;;;;;;;1.30;0.60;;;;;;;23.07;47.66;100413.53;5024903;28;20422;-82
2023/08/31 01:28:55;;;;;;;1.55;0.65;;;;;;;23.12;47.30;100416.28;5028639;28;20409;-78
2023/08/31 01:31:21;;;;;;;1.58;0.68;;;;;;;23.06;47.41;100417.31;5011263;28;20390;-80
2023/08/31 01:33:48;;;;;;;1.90;1.10;;;;;;;23.01;47.21;100423.47;5028346;28;20924;-79
2023/08/31 01:36:30;;;;;;;1.33;0.55;;;;;;;23.03;47.30;100428.59;5010525;28;20438;-80
2023/08/31 01:39:31;;;;;;;1.50;0.63;;;;;;;22.93;47.14;100423.94;5010621;28;20398;-80
2023/08/31 01:41:59;;;;;;;1.42;0.75;;;;;;;23.05;46.85;100427.31;5019105;28;20726;-80
2023/08/31 01:44:27;;;;;;;1.55;0.63;;;;;;;23.08;46.74;100431.38;5010522;28;20383;-82
2023/08/31 01:46:56;;;;;;;2.00;0.80;;;;;;;22.94;47.24;100432.88;5008149;28;20425;-81
2023/08/31 01:49:22;;;;;;;1.88;0.82;;;;;;;22.84;47.42;100445.22;5024483;28;20417;-80
2023/08/31 01:51:48;;;;;;;6.03;1.70;;;;;;;22.79;47.63;100441.69;5024229;28;20422;-82
2023/08/31 01:54:14;;;;;;;1.55;0.70;;;;;;;22.81;47.44;100447.63;5026025;28;20464;-81
2023/08/31 01:56:40;;;;;;;1.25;0.47;;;;;;;22.81;47.37;100450.34;5011125;28;20405;-80
2023/08/31 01:59:05;;;;;;;0.90;0.50;;;;;;;22.87;47.14;100439.31;5029318;28;20382;-80
2023/08/31 02:01:34;;;;;;;1.37;0.60;;;;;;;22.99;46.96;100428.31;5029231;28;20489;-79
2023/08/31 02:03:59;;;;;;;1.00;0.50;;;;;;;23.01;46.68;100436.16;5011453;28;20433;-81
2023/08/31 02:06:26;;;;;;;1.43;0.57;;;;;;;22.93;46.90;100440.16;5011372;28;20430;-81
2023/08/31 02:08:51;;;;;;;0.90;0.47;;;;;;;22.86;46.67;100440.38;5006629;28;20404;-81
2023/08/31 02:11:17;;;;;;;1.23;0.50;;;;;;;22.87;47.00;100444.72;5006825;28;20390;-82
2023/08/31 02:13:42;;;;;;;0.60;0.32;;;;;;;22.91;46.84;100464.75;5007696;28;20395;-81
2023/08/31 02:16:08;;;;;;;1.23;0.70;;;;;;;22.94;46.76;100460.72;4990494;28;20446;-82
2023/08/31 02:18:33;;;;;;;1.00;0.50;;;;;;;23.04;46.40;100471.63;5006643;28;20419;-81
2023/08/31 02:20:59;;;;;;;0.90;0.47;;;;;;;23.02;46.50;100468.34;5007383;28;20966;-79
2023/08/31 02:23:24;;;;;;;1.10;0.50;;;;;;;22.94;46.63;100476.13;4990133;28;20384;-77
2023/08/31 02:25:50;;;;;;;0.87;0.57;;;;;;;22.86;46.75;100470.09;4990335;28;20507;-78
2023/08/31 02:28:24;;;;;;;1.20;0.57;;;;;;;22.95;46.54;100464.25;5006903;28;20921;-77
2023/08/31 02:30:59;;;;;;;1.10;0.60;;;;;;;22.74;46.90;100461.34;4990679;28;20392;-77
2023/08/31 02:33:25;;;;;;;0.93;0.50;;;;;;;22.56;47.65;100464.44;5006529;28;20941;-77
2023/08/31 02:35:50;;;;;;;0.80;0.47;;;;;;;22.48;47.79;100471.13;5006961;28;20435;-77
2023/08/31 02:38:19;;;;;;;0.93;0.40;;;;;;;22.50;47.64;100474.38;4989159;28;20376;-79
2023/08/31 02:40:46;;;;;;;1.48;0.63;;;;;;;22.60;47.39;100481.75;5024916;28;20478;-79
2023/08/31 02:43:11;;;;;;;1.05;0.47;;;;;;;22.57;47.45;100482.28;5027213;28;20455;-78
2023/08/31 02:45:37;;;;;;;0.93;0.50;;;;;;;22.45;47.59;100485.13;5027944;28;20781;-78
2023/08/31 02:48:03;;;;;;;1.30;0.50;;;;;;;22.36;47.68;100486.66;5028633;28;20378;-80
2023/08/31 02:50:29;;;;;;;1.60;0.60;;;;;;;22.26;47.84;100485.50;5028111;28;20409;-79
2023/08/31 02:52:54;;;;;;;1.87;0.80;;;;;;;22.19;48.03;100492.13;5010034;28;20805;-78
2023/08/31 02:55:21;;;;;;;1.17;0.50;;;;;;;22.09;48.56;100493.66;5027702;28;20479;-80
2023/08/31 02:57:46;;;;;;;2.08;0.82;;;;;;;22.10;48.49;100483.66;5028339;28;20382;-79
2023/08/31 03:00:12;;;;;;;1.60;0.88;;;;;;;22.22;48.05;100494.31;5026190;28;20398;-78
2023/08/31 03:02:43;;;;;;;1.38;0.68;;;;;;;22.27;48.05;100492.53;5010458;28;20444;-78
2023/08/31 03:05:09;;;;;;;0.95;0.50;;;;;;;22.36;47.92;100494.75;5011029;28;20414;-77
2023/08/31 03:07:35;;;;;;;0.87;0.40;;;;;;;22.26;47.86;100507.09;5010438;28;20426;-81
2023/08/31 03:10:00;;;;;;;1.03;0.43;;;;;;;22.19;48.36;100502.94;5028399;28;20765;-83
2023/08/31 03:12:29;;;;;;;0.82;0.40;;;;;;;22.20;48.55;100512.66;5027769;28;20394;-79
2023/08/31 03:15:01;;;;;;;1.48;0.50;;;;;;;22.21;48.60;100504.28;5027098;28;20465;-81
2023/08/31 03:17:26;;;;;;;1.63;0.55;;;;;;;22.20;48.29;100509.94;5010012;28;20412;-80
2023/08/31 03:19:53;;;;;;;1.10;0.50;;;;;;;22.16;48.39;100498.84;5028141;28;20444;-80
2023/08/31 03:22:19;;;;;;;0.70;0.40;;;;;;;22.25;47.97;100502.72;5027935;28;20804;-78
2023/08/31 03:24:45;;;;;;;1.50;0.70;;;;;;;22.20;48.10;100508.09;5026782;28;20943;-79
2023/08/31 03:27:12;;;;;;;1.33;0.50;;;;;;;22.15;48.19;100500.72;5009805;28;20449;-80
2023/08/31 03:29:39;;;;;;;1.08;0.47;;;;;;;22.27;47.91;100514.13;5027942;28;20378;-80
2023/08/31 03:32:05;;;;;;;1.35;0.50;;;;;;;22.20;48.11;100508.09;5013110;28;21180;-79
2023/08/31 03:34:31;;;;;;;1.60;0.60;;;;;;;22.17;48.18;100510.47;5007818;28;20392;-78
2023/08/31 03:36:58;;;;;;;1.35;0.50;;;;;;;22.15;48.23;100518.81;5007301;28;20380;-81
2023/08/31 03:39:24;;;;;;;0.73;0.38;;;;;;;22.06;48.28;100509.53;4992085;28;20396;-79
2023/08/31 03:41:50;;;;;;;1.38;0.43;;;;;;;21.97;48.50;100511.84;4994621;28;20810;-78
2023/08/31 03:44:16;;;;;;;1.50;0.67;;;;;;;21.94;48.69;100515.03;5010281;28;20887;-78
2023/08/31 03:46:42;;;;;;;0.77;0.40;;;;;;;21.82;48.89;100506.25;5025181;28;20504;-80
2023/08/31 03:49:08;;;;;;;1.13;0.52;;;;;;;21.76;48.85;100511.56;5030044;28;20473;-80
2023/08/31 03:51:34;;;;;;;1.15;0.55;;;;;;;21.78;48.98;100516.72;5030941;28;20461;-79
2023/08/31 03:54:00;;;;;;;0.73;0.40;;;;;;;21.84;48.64;100509.50;5031076;28;20533;-80
2023/08/31 03:56:26;;;;;;;1.20;0.47;;;;;;;21.81;48.55;100516.22;5031349;28;20382;-79
2023/08/31 03:58:52;;;;;;;1.10;0.52;;;;;;;21.84;48.77;100514.91;5030169;28;20389;-79
2023/08/31 04:01:19;;;;;;;1.08;0.43;;;;;;;21.91;48.54;100512.84;5008530;28;20566;-79
2023/08/31 04:03:47;;;;;;;1.38;0.60;;;;;;;21.82;48.84;100507.06;5028104;28;20401;-78
2023/08/31 04:06:14;;;;;;;1.60;0.70;;;;;;;21.82;49.00;100519.72;5024593;28;20415;-81
2023/08/31 04:08:40;;;;;;;1.88;0.70;;;;;;;21.74;49.03;100521.00;5028799;28;20405;-80
2023/08/31 04:11:05;;;;;;;1.60;0.57;;;;;;;21.67;49.39;100526.56;5009394;28;20408;-77
2023/08/31 04:13:36;;;;;;;1.30;0.50;;;;;;;21.48;49.96;100535.97;5029561;28;20397;-80
2023/08/31 04:16:03;;;;;;;1.00;0.47;;;;;;;21.45;49.94;100537.31;5026885;28;20886;-78
2023/08/31 04:18:29;;;;;;;1.52;0.70;;;;;;;21.57;49.80;100547.97;5010389;28;20422;-79
2023/08/31 04:20:55;;;;;;;1.85;0.85;;;;;;;21.43;50.13;100558.28;5029134;28;20422;-79
2023/08/31 04:23:21;;;;;;;1.50;0.67;;;;;;;21.43;50.32;100562.84;5028759;28;20394;-80
2023/08/31 04:25:47;;;;;;;0.90;0.55;;;;;;;21.44;50.30;100567.97;5027651;28;20822;-87
2023/08/31 04:28:13;;;;;;;1.83;0.68;;;;;;;21.43;50.34;100568.22;5011429;28;20414;-82
2023/08/31 04:30:40;;;;;;;1.00;0.40;;;;;;;21.60;50.10;100574.47;5026926;28;20819;-82
2023/08/31 04:33:08;;;;;;;0.55;0.30;;;;;;;21.69;49.66;100577.56;5027827;28;20461;-83
2023/08/31 04:35:34;;;;;;;1.02;0.50;;;;;;;21.67;49.62;100580.50;5009331;28;21107;-83
2023/08/31 04:38:01;;;;;;;0.93;0.68;;;;;;;21.89;49.51;100590.53;5028287;28;20402;-84
2023/08/31 04:40:30;;;;;;;1.05;0.45;;;;;;;21.94;49.36;100579.81;5011540;28;20394;-82
2023/08/31 04:42:56;;;;;;;0.50;0.23;;;;;;;22.03;49.12;100596.41;5029415;28;20406;-81
2023/08/31 04:45:21;;;;;;;0.60;0.20;;;;;;;22.11;48.75;100604.88;5017538;28;20419;-82
2023/08/31 04:47:49;;;;;;;0.40;0.30;;;;;;;22.19;48.73;100592.84;4993959;28;20767;-81
2023/08/31 04:50:15;;;;;;;0.93;0.40;;;;;;;22.14;48.71;100595.47;5011012;28;20391;-83
2023/08/31 04:52:41;;;;;;;0.95;0.45;;;;;;;22.29;48.53;100586.75;5008705;28;20392;-82
2023/08/31 04:55:13;;;;;;;0.93;0.43;;;;;;;22.15;48.79;100589.81;5010798;28;20445;-82
2023/08/31 04:57:39;;;;;;;1.25;0.75;;;;;;;22.25;48.53;100597.22;4993291;28;20400;-82
2023/08/31 05:00:07;;;;;;;1.30;0.50;;;;;;;22.42;48.29;100599.91;5011078;28;20400;-82
2023/08/31 05:02:33;;;;;;;0.98;0.35;;;;;;;22.46;48.21;100602.94;4994274;28;20451;-81
2023/08/31 05:04:59;;;;;;;0.98;0.40;;;;;;;22.29;48.73;100603.81;5011630;28;20812;-81
2023/08/31 05:07:24;;;;;;;0.80;0.40;;;;;;;22.19;48.94;100616.31;5010405;28;20411;-84
2023/08/31 05:09:50;;;;;;;1.20;0.60;;;;;;;22.05;49.06;100616.66;5011071;28;20395;-84
2023/08/31 05:12:17;;;;;;;1.73;0.60;;;;;;;21.95;49.26;100601.16;4992256;28;20747;-85
2023/08/31 05:14:43;;;;;;;1.55;0.63;;;;;;;22.05;49.57;100608.56;5009561;28;20771;-82
2023/08/31 05:17:08;;;;;;;1.03;0.60;;;;;;;22.01;49.58;100607.44;5009523;28;20408;-90
2023/08/31 05:19:34;;;;;;;1.30;0.65;;;;;;;21.99;49.72;100612.28;4995481;28;20396;-83
2023/08/31 05:22:00;;;;;;;1.97;0.90;;;;;;;21.95;49.73;100616.53;4985365;28;21000;-84
2023/08/31 05:24:25;;;;;;;0.95;0.60;;;;;;;21.98;49.97;100623.31;4986594;28;20485;-90
2023/08/31 05:26:51;;;;;;;0.70;0.40;;;;;;;22.13;49.53;100620.84;4991807;28;20425;-83
2023/08/31 05:29:16;;;;;;;1.00;0.52;;;;;;;22.05;49.55;100622.06;4989435;28;20392;-84
2023/08/31 05:31:42;;;;;;;2.13;1.17;;;;;;;21.93;50.03;100619.50;4988812;28;20390;-85
2023/08/31 05:34:10;;;;;;;0.90;0.50;;;;;;;21.89;50.24;100620.22;4991954;28;20414;-83
2023/08/31 05:36:35;;;;;;;0.98;0.45;;;;;;;21.90;50.18;100621.88;4987960;28;20390;-81
2023/08/31 05:39:01;;;;;;;1.57;0.60;;;;;;;21.82;50.54;100630.38;4987772;28;20900;-83
2023/08/31 05:41:27;;;;;;;1.05;0.50;;;;;;;21.61;51.28;100621.13;4988051;28;20389;-86
2023/08/31 05:43:52;;;;;;;1.02;0.50;;;;;;;21.69;51.06;100626.13;4988522;28;20404;-85
2023/08/31 05:46:19;;;;;;;1.20;0.57;;;;;;;21.71;51.24;100614.00;4989699;28;20947;-88
2023/08/31 05:48:46;;;;;;;1.27;0.50;;;;;;;21.80;51.49;100619.00;4991498;28;20389;-89
2023/08/31 05:51:11;;;;;;;1.40;0.57;;;;;;;21.97;51.08;100614.41;4988954;28;20404;-77
2023/08/31 05:53:37;;;;;;;0.90;0.50;;;;;;;22.14;50.75;100614.38;4972959;28;20386;-79
2023/08/31 05:56:07;;;;;;;1.13;0.45;;;;;;;22.51;50.01;100619.19;4987276;28;20497;-79
2023/08/31 05:58:33;;;;;;;1.52;0.70;;;;;;;22.71;49.60;100627.53;4990191;28;20411;-78
2023/08/31 06:01:00;;;;;;;1.50;1.00;;;;;;;22.79;49.18;100625.44;5009363;28;20461;-81
2023/08/31 06:03:26;;;;;;;1.23;0.50;;;;;;;22.90;49.07;100635.28;4990670;28;20420;-80
2023/08/31 06:05:51;;;;;;;0.90;0.43;;;;;;;23.12;48.95;100632.59;5007633;28;20855;-80
2023/08/31 06:08:17;;;;;;;0.52;0.30;;;;;;;23.27;48.47;100635.41;4991971;28;20438;-80
2023/08/31 06:10:42;;;;;;;0.97;0.50;;;;;;;23.41;48.24;100648.53;4991569;28;20396;-78
2023/08/31 06:13:08;;;;;;;0.70;0.30;;;;;;;23.51;47.72;100645.09;5009730;28;20392;-79
2023/08/31 06:15:33;;;;;;;0.88;0.45;;;;;;;23.74;47.74;100652.84;4992125;28;20400;-80
2023/08/31 06:17:59;;;;;;;1.47;0.60;;;;;;;23.83;47.57;100647.81;5008879;28;20499;-79
2023/08/31 06:20:24;;;;;;;0.93;0.47;;;;;;;24.01;47.44;100658.22;5009156;28;20390;-79
2023/08/31 06:22:50;;;;;;;1.02;0.50;;;;;;;24.12;47.34;100661.00;5009354;28;20945;-79
2023/08/31 06:25:18;;;;;;;1.40;0.60;;;;;;;24.23;47.11;100646.41;5008493;28;20423;-80
2023/08/31 06:27:44;;;;;;;0.75;0.38;;;;;;;24.39;46.89;100650.84;5009262;28;20379;-79
2023/08/31 06:30:15;;;;;;;1.20;0.50;;;;;;;24.46;46.93;100649.78;4991563;28;20471;-80
2023/08/31 06:32:46;;;;;;;1.35;0.50;;;;;;;24.59;46.65;100660.97;5009262;28;20384;-80
2023/08/31 06:35:13;;;;;;;1.23;0.52;;;;;;;24.71;46.46;100660.75;5010219;28;20416;-79
2023/08/31 06:37:39;;;;;;;0.80;0.40;;;;;;;24.79;46.39;100662.97;4991301;28;20388;-78
2023/08/31 06:40:09;;;;;;;1.15;0.55;;;;;;;24.91;46.16;100662.72;5008597;28;20424;-80
2023/08/31 06:42:40;;;;;;;1.20;0.68;;;;;;;24.92;45.78;100658.94;5008287;28;20396;-79
2023/08/31 06:45:07;;;;;;;0.68;0.32;;;;;;;25.06;45.48;100658.41;4990726;28;20447;-80
2023/08/31 06:47:33;;;;;;;0.70;0.32;;;;;;;25.17;45.41;100666.31;5008776;28;20503;-80
2023/08/31 06:49:59;;;;;;;1.27;0.60;;;;;;;25.31;45.35;100663.91;4991595;28;20475;-79
2023/08/31 06:52:28;;;;;;;0.70;0.40;;;;;;;25.46;45.07;100668.53;4991001;28;20450;-80
2023/08/31 06:54:56;;;;;;;1.80;0.70;;;;;;;25.58;44.69;100665.53;5007123;28;20392;-80
2023/08/31 06:57:23;;;;;;;1.08;0.50;;;;;;;25.66;44.81;100672.31;5008725;28;20384;-79
2023/08/31 06:59:48;;;;;;;1.30;0.50;;;;;;;25.70;44.54;100662.56;4990623;28;20403;-78
2023/08/31 07:02:14;;;;;;;1.15;0.57;;;;;;;25.86;44.46;100668.81;5007932;28;20736;-79
2023/08/31 07:04:40;;;;;;;1.40;0.60;;;;;;;25.92;44.13;100671.22;5008717;28;20394;-80
2023/08/31 07:07:08;;;;;;;1.80;0.70;;;;;;;26.03;44.08;100663.09;5008415;28;20939;-82
2023/08/31 07:09:34;;;;;;;0.98;0.40;;;;;;;26.12;43.79;100675.81;4990809;28;20758;-80
2023/08/31 07:12:03;;;;;;;1.10;0.60;;;;;;;26.14;43.47;100675.56;4991509;28;20400;-82
2023/08/31 07:14:28;;;;;;;0.85;0.40;;;;;;;26.27;43.14;100683.16;4992511;28;20392;-78
2023/08/31 07:16:54;;;;;;;1.27;0.57;;;;;;;26.31;43.47;100681.50;4994924;28;20508;-81
2023/08/31 07:19:19;;;;;;;1.17;0.50;;;;;;;26.47;42.99;100692.31;4995100;28;20507;-79
2023/08/31 07:21:46;;;;;;;0.93;0.47;;;;;;;26.55;42.36;100690.94;4994685;28;20461;-79
2023/08/31 07:24:12;;;;;;;0.85;0.45;;;;;;;26.65;42.34;100688.19;5011113;28;20420;-81
2023/08/31 07:26:38;;;;;;;1.10;0.50;;;;;;;26.73;41.95;100690.34;5011637;28;20864;-79
2023/08/31 07:29:04;;;;;;;0.80;0.50;;;;;;;26.85;41.91;100684.59;4970596;28;20415;-79
2023/08/31 07:31:31;;;;;;;0.93;0.52;;;;;;;26.98;41.87;100692.13;4970665;28;20394;-81
2023/08/31 07:33:57;;;;;;;0.95;0.50;;;;;;;27.11;41.17;100689.88;4954781;28;20472;-81
2023/08/31 07:36:22;;;;;;;0.88;0.47;;;;;;;27.21;41.56;100690.63;4954228;28;20842;-78
2023/08/31 07:38:48;;;;;;;1.00;0.47;;;;;;;27.23;40.01;100687.63;4950894;29;20564;-78
2023/08/31 07:41:13;;;;;;;1.58;0.65;;;;;;;27.31;39.39;100688.97;4934382;29;20397;-80
2023/08/31 07:43:39;;;;;;;1.13;0.50;;;;;;;27.43;40.25;100694.88;4934596;29;20401;-81
2023/08/31 07:46:05;;;;;;;0.80;0.43;;;;;;;27.44;39.04;100694.59;4935446;29;20416;-81
2023/08/31 07:48:32;;;;;;;1.00;0.50;;;;;;;27.51;39.09;100696.97;4951026;29;20801;-79
2023/08/31 07:50:58;;;;;;;0.85;0.50;;;;;;;27.57;38.62;100706.75;4951074;29;20401;-79
2023/08/31 07:53:24;;;;;;;1.10;0.47;;;;;;;27.59;37.92;100709.97;4934802;29;20541;-77
2023/08/31 07:55:54;;;;;;;1.20;0.60;;;;;;;27.52;37.07;100704.06;4950252;29;20925;-79
2023/08/31 07:58:23;;;;;;;1.08;0.60;;;;;;;27.75;37.05;100707.94;4934840;29;20443;-81
2023/08/31 08:00:53;;;;;;;3.88;0.85;;;;;;;27.89;37.44;100710.00;4934800;29;20432;-79
2023/08/31 08:03:19;;;;;;;0.77;0.57;;;;;;;28.01;37.28;100711.28;4950847;29;20553;-79
2023/08/31 08:05:45;;;;;;;1.20;0.70;;;;;;;28.02;36.99;100710.19;4951235;29;20534;-79
2023/08/31 08:08:11;;;;;;;0.90;0.55;;;;;;;27.98;36.04;100714.59;4951321;29;20870;-81
2023/08/31 08:10:37;;;;;;;0.52;0.30;;;;;;;28.06;35.45;100718.59;4987184;28;20387;-83
2023/08/31 08:13:03;;;;;;;1.27;0.60;;;;;;;28.15;35.60;100724.25;4994705;28;20400;-79
2023/08/31 08:15:29;;;;;;;0.55;0.45;;;;;;;28.00;35.14;100717.00;5011897;28;20905;-81
2023/08/31 08:17:57;;;;;;;1.10;0.57;;;;;;;28.08;34.67;100718.31;4994240;28;20401;-80
2023/08/31 08:20:23;;;;;;;0.90;0.50;;;;;;;28.16;35.25;100713.06;5011673;28;20386;-79
2023/08/31 08:22:52;;;;;;;0.90;0.50;;;;;;;28.10;34.64;100714.19;4994710;28;20406;-80
2023/08/31 08:25:20;;;;;;;1.10;0.50;;;;;;;28.27;34.90;100727.41;5010919;28;20740;-81
2023/08/31 08:27:47;;;;;;;0.70;0.40;;;;;;;28.23;34.17;100720.88;5010601;28;20387;-80
2023/08/31 08:30:13;;;;;;;1.00;0.50;;;;;;;28.14;33.76;100717.16;5009916;28;20430;-80
2023/08/31 08:32:38;;;;;;;1.48;0.70;;;;;;;28.13;34.01;100721.81;5010468;28;20416;-81
2023/08/31 08:35:04;;;;;;;1.27;0.57;;;;;;;28.27;33.66;100721.09;5010512;28;20419;-80
2023/08/31 08:37:34;;;;;;;1.20;0.50;;;;;;;28.27;33.64;100718.38;5008581;28;20400;-79
2023/08/31 08:40:01;;;;;;;1.23;0.50;;;;;;;28.42;33.80;100721.75;5011487;28;20478;-79
2023/08/31 08:42:29;;;;;;;1.58;0.55;;;;;;;28.54;34.42;100718.66;5010744;28;20380;-80
2023/08/31 08:44:56;;;;;;;1.30;0.60;;;;;;;28.70;34.11;100715.75;5008330;28;20443;-80
2023/08/31 08:47:22;;;;;;;1.60;0.70;;;;;;;28.80;34.16;100707.44;5007726;28;20407;-81
2023/08/31 08:49:48;;;;;;;1.20;0.60;;;;;;;28.62;32.72;100713.69;5007920;28;20400;-80
2023/08/31 08:52:17;;;;;;;1.27;0.60;;;;;;;28.62;33.17;100714.47;5006142;28;20964;-81
2023/08/31 08:54:44;;;;;;;0.93;0.40;;;;;;;28.54;32.70;100715.94;4990349;28;20408;-79
2023/08/31 08:57:10;;;;;;;0.40;0.22;;;;;;;28.42;32.66;100713.56;4993924;28;20479;-82
2023/08/31 08:59:35;;;;;;;1.30;0.60;;;;;;;28.75;33.38;100710.22;4993435;28;20826;-80
2023/08/31 09:02:01;;;;;;;1.43;0.70;;;;;;;28.79;32.67;100717.53;4992726;28;20400;-80
2023/08/31 09:04:30;;;;;;;1.50;0.70;;;;;;;28.88;32.83;100704.06;4991896;28;20389;-82
2023/08/31 09:06:55;;;;;;;1.38;0.57;;;;;;;28.94;33.02;100713.78;5010056;28;20486;-80
2023/08/31 09:09:21;;;;;;;1.17;0.57;;;;;;;29.10;32.89;100694.47;5010226;28;20400;-79
2023/08/31 09:11:46;;;;;;;1.00;0.70;;;;;;;28.59;31.55;100704.97;5010715;28;20380;-80
2023/08/31 09:14:19;;;;;;;1.13;0.50;;;;;;;28.74;31.88;100703.97;4991965;28;21071;-79
2023/08/31 09:16:49;;;;;;;0.77;0.47;;;;;;;28.83;31.93;100711.47;5007903;28;21133;-80
2023/08/31 09:19:19;;;;;;;1.83;0.82;;;;;;;28.96;31.49;100705.31;4991454;28;20393;-83
2023/08/31 09:21:46;;;;;;;1.33;0.60;;;;;;;28.88;31.02;100708.69;5009813;28;20514;-81
2023/08/31 09:24:13;;;;;;;1.15;0.55;;;;;;;29.04;31.13;100701.13;4992843;28;20384;-80
2023/08/31 09:26:47;;;;;;;1.33;0.60;;;;;;;29.26;31.78;100704.09;5009172;28;20411;-78
2023/08/31 09:29:13;;;;;;;0.88;0.55;;;;;;;28.91;30.67;100702.66;5008601;28;20392;-82
2023/08/31 09:31:43;;;;;;;1.05;0.50;;;;;;;28.98;31.53;100687.53;4992301;28;20380;-81
2023/08/31 09:34:09;;;;;;;1.40;0.70;;;;;;;29.19;31.15;100708.28;5008356;28;20403;-82
2023/08/31 09:36:36;;;;;;;1.00;0.50;;;;;;;29.10;31.25;100697.19;5009834;28;20384;-81
2023/08/31 09:39:02;;;;;;;1.05;0.50;;;;;;;29.26;31.52;100698.66;5009379;28;20387;-80
2023/08/31 09:41:27;;;;;;;0.95;0.40;;;;;;;29.07;30.46;100695.06;5010343;28;20415;-80
2023/08/31 09:43:53;;;;;;;1.10;0.60;;;;;;;29.01;31.10;100694.34;5009319;28;20431;-82
2023/08/31 09:46:20;;;;;;;0.67;0.33;;;;;;;29.31;31.27;100692.28;5009789;28;20855;-81
2023/08/31 09:48:47;;;;;;;0.85;0.40;;;;;;;29.47;31.13;100699.13;5007997;28;20400;-78
2023/08/31 09:51:16;;;;;;;0.93;0.50;;;;;;;29.53;31.45;100691.66;4975656;28;20483;-79
2023/08/31 09:53:42;;;;;;;1.55;0.60;;;;;;;29.42;30.78;100692.94;5007670;28;20404;-79
2023/08/31 09:56:18;;;;;;;0.82;0.40;;;;;;;29.42;30.66;100693.72;4992375;28;20740;-81
2023/08/31 09:58:44;;;;;;;1.37;0.60;;;;;;;29.53;30.40;100699.84;5009501;28;20763;-80
2023/08/31 10:01:09;;;;;;;1.40;0.63;;;;;;;29.48;31.07;100694.50;5010021;28;20391;-82
2023/08/31 10:03:35;;;;;;;0.63;0.30;;;;;;;29.72;31.21;100695.16;5007769;28;20736;-82
2023/08/31 10:06:02;;;;;;;0.90;0.40;;;;;;;29.79;31.16;100700.28;4991479;28;20423;-80
2023/08/31 10:08:31;;;;;;;1.13;0.50;;;;;;;29.64;30.57;100698.59;4992637;28;20846;-82
2023/08/31 10:11:00;;;;;;;1.17;0.50;;;;;;;29.80;31.11;100695.59;4992464;28;20396;-78
2023/08/31 10:13:28;;;;;;;0.80;0.40;;;;;;;29.85;30.83;100699.06;5009624;28;20411;-79
2023/08/31 10:15:55;;;;;;;0.90;0.40;;;;;;;29.91;31.42;100699.81;5010008;28;20902;-80
2023/08/31 10:18:21;;;;;;;1.20;0.52;;;;;;;29.90;30.68;100696.25;4976127;28;20499;-81
2023/08/31 10:20:47;;;;;;;1.23;0.60;;;;;;;30.00;30.32;100697.16;4993840;28;20404;-80
2023/08/31 10:23:13;;;;;;;0.67;0.30;;;;;;;30.14;30.73;100695.25;5008861;28;20446;-80
2023/08/31 10:25:47;;;;;;;0.55;0.30;;;;;;;29.96;29.49;100698.88;5009180;28;20426;-80
2023/08/31 10:28:22;;;;;;;0.70;0.30;;;;;;;30.00;29.94;100699.91;5009829;28;20391;-80
2023/08/31 10:31:03;;;;;;;0.50;0.40;;;;;;;30.14;30.02;100692.53;5010351;28;20386;-79
2023/08/31 10:33:32;;;;;;;1.55;0.60;;;;;;;29.98;29.59;100700.22;5009642;28;20957;-80
2023/08/31 10:35:58;;;;;;;0.93;0.40;;;;;;;30.07;30.12;100692.09;4992511;28;20400;-82
2023/08/31 10:38:28;;;;;;;1.23;0.50;;;;;;;30.02;29.93;100693.03;4992273;28;20446;-80
2023/08/31 10:41:06;;;;;;;1.77;0.60;;;;;;;30.01;29.67;100704.25;4991719;28;20399;-79
2023/08/31 10:43:51;;;;;;;0.70;0.40;;;;;;;29.92;30.00;100694.00;5009749;28;20391;-80
2023/08/31 10:46:17;;;;;;;0.68;0.35;;;;;;;30.03;30.08;100683.69;5009057;28;20412;-80
2023/08/31 10:48:53;;;;;;;0.98;0.52;;;;;;;30.15;29.76;100685.97;5008977;28;20388;-78
2023/08/31 10:51:25;;;;;;;0.90;0.40;;;;;;;30.19;29.56;100691.63;5009279;28;20475;-80
2023/08/31 10:53:51;;;;;;;1.20;0.55;;;;;;;30.02;30.06;100693.03;5009146;28;20384;-80
2023/08/31 10:56:18;;;;;;;0.90;0.50;;;;;;;30.23;30.42;100696.19;5008012;28;20399;-81
2023/08/31 10:58:55;;;;;;;0.70;0.40;;;;;;;30.26;29.53;100689.31;5009181;28;20396;-81
2023/08/31 11:02:14;;;;;;;0.90;0.40;;;;;;;29.91;29.40;100692.41;4992276;28;20392;-81
2023/08/31 11:05:09;;;;;;;1.05;0.50;;;;;;;29.72;29.41;100686.16;4956755;28;20392;-79
2023/08/31 11:07:35;;;;;;;1.15;0.52;;;;;;;29.93;29.51;100697.56;5009026;28;20410;-82
2023/08/31 11:10:11;;;;;;;1.10;0.60;;;;;;;30.14;29.51;100687.06;4990941;28;20760;-79
2023/08/31 11:12:38;;;;;;;0.80;0.40;;;;;;;30.30;29.04;100693.03;4992256;28;20394;-79
2023/08/31 11:15:05;;;;;;;0.85;0.52;;;;;;;30.31;28.93;100683.75;4991699;28;20396;-81
2023/08/31 11:17:35;;;;;;;1.30;0.70;;;;;;;30.54;29.15;100676.47;5009590;28;20403;-82
2023/08/31 11:20:05;;;;;;;1.03;0.47;;;;;;;30.08;28.98;100680.88;5007879;28;20810;-82
2023/08/31 11:22:30;;;;;;;0.75;0.47;;;;;;;29.88;29.31;100695.72;5009124;28;20384;-83
2023/08/31 11:24:56;;;;;;;0.93;0.50;;;;;;;29.89;29.22;100691.91;4991485;28;20396;-81
2023/08/31 11:27:23;;;;;;;0.80;0.50;;;;;;;29.68;29.91;100696.88;4991545;28;20404;-80